CDT,Max TemperatureF,Mean TemperatureF,Min TemperatureF,Max Dew PointF,MeanDew PointF,Min DewpointF,Max Humidity, Mean Humidity, Min Humidity, Max Sea Level PressureIn, Mean Sea Level PressureIn, Min Sea Level PressureIn, Max VisibilityMiles, Mean VisibilityMiles, Min VisibilityMiles, Max Wind SpeedMPH, Mean Wind SpeedMPH, Max Gust SpeedMPH,PrecipitationIn, CloudCover, Events, WindDirDegrees
2012-9-1,80,71,62,61,53,46,88,58,30,30.14,30.09,30.04,10,10,10,16,8,23,0.00,1,,85
2012-9-2,82,70,59,66,61,52,83,70,54,30.05,29.99,29.93,10,10,10,9,6,,0.00,1,,104
2012-9-3,84,74,64,73,67,64,100,90,58,29.98,29.95,29.91,10,8,0,13,5,,0.52,2,,173
2012-9-4,86,73,60,72,65,57,100,84,55,29.94,29.89,29.80,10,6,0,18,2,24,0.24,2,,173
2012-9-5,77,68,60,61,60,57,100,79,50,29.97,29.84,29.78,10,10,5,13,7,21,0.24,2,,222
2012-9-6,75,63,51,59,52,46,100,71,36,30.01,29.95,29.90,10,10,10,7,3,,0.00,0,,285
2012-9-7,62,56,51,54,50,45,82,72,52,29.97,29.91,29.87,10,10,10,14,7,24,0.00,3,,9
2012-9-8,71,58,44,52,47,45,100,74,38,29.98,29.92,29.78,10,10,10,15,7,21,0.00,1,,298
2012-9-9,68,59,50,52,49,45,100,81,46,30.17,30.11,29.97,10,10,10,10,6,16,0.00,3,,337
2012-9-10,75,63,51,52,49,45,82,57,38,30.18,30.08,30.00,10,10,10,16,8,22,0.00,0,,186
2012-9-11,82,70,57,57,53,48,77,58,35,30.02,29.98,29.93,10,10,10,21,9,26,0.00,0,,185
2012-9-12,75,62,50,59,51,36,100,64,28,30.25,30.11,29.98,10,10,4,16,9,24,0.21,3,,300
2012-9-13,62,55,48,52,49,45,100,84,52,30.36,30.32,30.25,10,9,4,10,5,17,0.26,3,,276
2012-9-14,71,58,46,50,46,37,100,71,31,30.34,30.31,30.29,10,10,10,9,3,,0.00,0,,260
2012-9-15,75,62,50,46,44,41,82,55,29,30.30,30.21,30.10,10,10,10,15,6,21,0.00,0,,196
2012-9-16,71,61,51,52,46,43,82,57,35,30.09,30.01,29.93,10,10,10,18,9,23,0.00,0,,198
2012-9-17,62,53,42,55,50,41,100,89,63,29.93,29.90,29.87,10,9,4,17,7,23,0.09,5,,309
2012-9-18,57,46,35,41,35,28,100,70,38,30.00,29.97,29.93,10,10,10,14,6,20,0.00,2,,314
2012-9-19,71,56,41,54,39,30,71,52,35,29.97,29.82,29.66,10,10,10,24,11,31,0.00,3,,205
2012-9-20,62,52,41,41,37,32,93,64,34,29.92,29.89,29.84,10,10,10,17,7,25,0.00,1,,261
2012-9-21,60,51,42,46,41,36,87,69,48,29.90,29.84,29.79,10,10,10,12,6,,0.00,5,,247
2012-9-22,53,44,35,41,36,32,93,76,50,30.20,30.03,29.76,10,10,5,24,9,34,0.01,6,,305
2012-9-23,55,44,32,36,32,28,100,70,38,30.29,30.24,30.20,10,10,10,15,5,22,0.00,0,,289
2012-9-24,71,52,33,37,34,32,93,53,25,30.20,29.98,29.81,10,10,10,22,8,32,0.00,0,,219
2012-9-25,71,60,46,45,39,36,76,53,27,29.92,29.84,29.79,10,10,7,10,6,16,0.00,0,,269
2012-9-26,62,50,39,43,36,34,87,60,34,30.19,30.08,29.94,10,10,7,10,4,16,0.00,0,,57
2012-9-27,64,50,35,41,35,34,100,61,32,30.29,30.23,30.19,10,9,2,9,4,,0.00,0,,99
2012-9-28,69,53,37,43,38,34,100,60,27,30.25,30.18,30.13,10,10,10,6,3,,0.00,0,,235
2012-9-29,77,62,46,43,39,36,81,50,22,30.13,30.07,30.01,10,10,10,10,5,16,0.00,0,,295
2012-9-30,69,56,44,45,40,37,87,58,31,30.02,29.98,29.94,10,10,10,9,4,,0.00,0,,109